createdAt,value
2019-03-11T00:02:44.416Z,10.01
2019-03-11T00:03:48.314Z,9.99
2019-03-11T00:06:35.184Z,9.95
2019-03-11T00:07:39.331Z,9.90
2019-03-11T00:08:43.221Z,9.89
2019-03-11T00:09:47.408Z,9.90
2019-03-11T00:13:31.841Z,9.81
2019-03-11T00:14:35.804Z,9.78
2019-03-11T00:15:39.890Z,9.76
2019-03-11T00:16:43.784Z,9.78
2019-03-11T00:17:47.620Z,9.77
2019-03-11T00:18:51.690Z,9.72
2019-03-11T00:19:55.576Z,9.72
2019-03-11T00:20:59.848Z,9.69
2019-03-11T00:22:03.938Z,9.66
2019-03-11T00:23:08.462Z,9.64
2019-03-11T00:24:12.567Z,9.62
2019-03-11T00:25:35.656Z,9.60
2019-03-11T00:26:39.872Z,9.57
2019-03-11T00:28:02.888Z,9.55
2019-03-11T00:29:07.097Z,9.54
2019-03-11T00:30:30.146Z,9.50
2019-03-11T00:31:34.304Z,9.49
2019-03-11T00:32:38.211Z,9.47
2019-03-11T00:33:42.030Z,9.48
2019-03-11T00:34:46.228Z,9.47
2019-03-11T00:35:50.044Z,9.47
2019-03-11T00:36:54.326Z,9.46
2019-03-11T00:37:58.219Z,9.44
2019-03-11T00:40:25.487Z,9.44
2019-03-11T00:41:29.667Z,9.40
2019-03-11T00:42:52.684Z,9.39
2019-03-11T00:43:56.842Z,9.37
2019-03-11T00:45:00.739Z,9.36
2019-03-11T00:46:24.049Z,9.34
2019-03-11T00:48:51.491Z,9.34
2019-03-11T00:50:15.115Z,9.30
2019-03-11T00:53:06.571Z,9.29
2019-03-11T00:54:10.400Z,9.25
2019-03-11T00:55:53.882Z,9.22
2019-03-11T00:58:06.977Z,9.19
2019-03-11T00:59:11.490Z,9.21
2019-03-11T01:00:35.119Z,9.17
2019-03-11T01:01:58.265Z,9.18
2019-03-11T01:03:21.285Z,9.14
2019-03-11T01:04:44.416Z,9.13
2019-03-11T01:05:48.819Z,9.13
2019-03-11T01:08:02.492Z,9.10
2019-03-11T01:09:46.662Z,9.15
2019-03-11T01:11:09.623Z,9.11
2019-03-11T01:13:41.961Z,9.06
2019-03-11T01:15:04.845Z,9.07
2019-03-11T01:16:27.863Z,9.08
2019-03-11T01:17:32.001Z,9.04
2019-03-11T01:18:55.023Z,9.02
2019-03-11T01:20:18.118Z,9.03
2019-03-11T01:21:41.006Z,9.07
2019-03-11T01:23:04.136Z,9.05
2019-03-11T01:24:08.307Z,9.06
2019-03-11T01:25:12.810Z,9.03
2019-03-11T01:26:16.625Z,9.00
2019-03-11T01:27:20.706Z,9.00
2019-03-11T01:28:24.678Z,9.01
2019-03-11T01:29:28.507Z,9.00
2019-03-11T01:30:32.465Z,9.00
2019-03-11T01:31:36.291Z,9.02
2019-03-11T01:32:40.519Z,9.03
2019-03-11T01:33:44.370Z,9.07
2019-03-11T01:34:48.429Z,9.07
2019-03-11T01:35:52.629Z,9.10
2019-03-11T01:37:16.010Z,9.12
2019-03-11T01:38:20.394Z,9.17
2019-03-11T01:40:47.463Z,9.20
2019-03-11T01:41:51.630Z,9.25
2019-03-11T01:43:15.293Z,9.26
2019-03-11T01:44:19.575Z,9.31
2019-03-11T01:45:42.595Z,9.33
2019-03-11T01:46:46.668Z,9.32
2019-03-11T01:47:50.834Z,9.34
2019-03-11T01:49:14.290Z,9.38
2019-03-11T01:50:37.567Z,9.41
2019-03-11T01:52:00.662Z,9.44
2019-03-11T01:53:23.695Z,9.48
2019-03-11T01:54:46.975Z,9.50
2019-03-11T01:56:10.574Z,9.45
2019-03-11T01:57:33.885Z,9.46
2019-03-11T01:58:38.297Z,9.46
2019-03-11T01:59:42.186Z,9.50
2019-03-11T02:00:46.409Z,9.49
2019-03-11T02:01:50.626Z,9.51
2019-03-11T02:02:54.945Z,9.52
2019-03-11T02:03:59.015Z,9.52
2019-03-11T02:05:02.917Z,9.54
2019-03-11T02:06:07.063Z,9.56
2019-03-11T02:07:11.133Z,9.58
2019-03-11T02:08:15.355Z,9.56
2019-03-11T02:09:19.752Z,9.57
2019-03-11T02:10:23.885Z,9.59
2019-03-11T02:11:27.777Z,9.60
2019-03-11T02:12:31.849Z,9.62
2019-03-11T02:13:54.888Z,9.63
2019-03-11T02:15:17.783Z,9.67
2019-03-11T02:18:03.848Z,9.67
2019-03-11T02:19:07.927Z,9.68
2019-03-11T02:20:30.944Z,9.70
2019-03-11T02:21:53.964Z,9.72
2019-03-11T02:22:58.494Z,9.75
2019-03-11T02:24:02.325Z,9.77
2019-03-11T02:26:48.361Z,9.81
2019-03-11T02:27:52.558Z,9.81
2019-03-11T02:28:56.391Z,9.81
2019-03-11T02:31:42.380Z,9.81
2019-03-11T02:32:46.617Z,9.81
2019-03-11T02:33:50.519Z,9.79
2019-03-11T02:36:36.876Z,9.82
2019-03-11T02:38:00.089Z,9.84
2019-03-11T02:39:45.482Z,9.82
2019-03-11T02:40:49.921Z,9.81
2019-03-11T02:43:35.906Z,9.79
2019-03-11T02:44:59.187Z,9.78
2019-03-11T02:47:45.145Z,9.75
2019-03-11T02:48:49.340Z,9.75
2019-03-11T02:49:53.832Z,9.74
2019-03-11T02:51:16.721Z,9.75
2019-03-11T02:52:40.004Z,9.76
2019-03-11T02:54:03.332Z,9.77
2019-03-11T02:55:26.630Z,9.77
2019-03-11T02:56:50.097Z,9.78
2019-03-11T02:58:13.515Z,9.75
2019-03-11T02:59:36.845Z,9.75
2019-03-11T03:00:40.944Z,9.74
2019-03-11T03:02:03.765Z,9.72
2019-03-11T03:03:45.761Z,9.72
2019-03-11T03:06:26.242Z,9.76
2019-03-11T03:07:30.312Z,9.75
2019-03-11T03:08:53.265Z,9.77
2019-03-11T03:10:16.361Z,9.78
2019-03-11T03:11:39.543Z,9.76
2019-03-11T03:12:43.794Z,9.76
2019-03-11T03:13:47.865Z,9.78
2019-03-11T03:15:10.948Z,9.80
2019-03-11T03:16:15.051Z,9.80
2019-03-11T03:17:18.883Z,9.80
2019-03-11T03:18:42.075Z,9.83
2019-03-11T03:19:46.174Z,9.85
2019-03-11T03:21:09.221Z,9.82
2019-03-11T03:22:32.465Z,9.81
2019-03-11T03:23:36.913Z,9.81
2019-03-11T03:24:40.730Z,9.82
2019-03-11T03:25:44.635Z,9.82
2019-03-11T03:26:48.869Z,9.85
2019-03-11T03:27:53.225Z,9.86
2019-03-11T03:28:57.086Z,9.86
2019-03-11T03:30:00.996Z,9.87
2019-03-11T03:31:04.895Z,9.89
2019-03-11T03:32:08.877Z,9.89
2019-03-11T03:33:13.329Z,9.91
2019-03-11T03:34:17.386Z,9.97
2019-03-11T03:35:21.477Z,9.93
2019-03-11T03:36:25.685Z,9.91
2019-03-11T03:37:29.585Z,9.90
2019-03-11T03:38:33.736Z,9.90
2019-03-11T03:39:38.255Z,9.90
2019-03-11T03:41:01.206Z,9.90
2019-03-11T03:43:47.669Z,9.94
2019-03-11T03:45:29.822Z,9.93
2019-03-11T03:46:52.836Z,9.93
2019-03-11T03:48:16.207Z,9.93
2019-03-11T03:49:40.706Z,9.94
2019-03-11T03:51:03.681Z,9.93
2019-03-11T03:52:07.584Z,9.90
2019-03-11T03:53:30.592Z,9.89
2019-03-11T03:54:53.615Z,9.87
2019-03-11T03:56:16.675Z,9.87
2019-03-11T03:57:39.829Z,9.86
2019-03-11T03:58:44.264Z,9.83
2019-03-11T03:59:48.868Z,9.82
2019-03-11T04:00:52.698Z,9.80
2019-03-11T04:03:38.611Z,9.80
2019-03-11T04:04:42.544Z,9.79
2019-03-11T04:06:05.853Z,9.77
2019-03-11T04:07:10.300Z,9.75
2019-03-11T04:08:14.445Z,9.73
2019-03-11T04:09:18.261Z,9.73
2019-03-11T04:10:22.722Z,9.69
2019-03-11T04:11:26.702Z,9.68
2019-03-11T04:12:30.593Z,9.71
2019-03-11T04:13:34.490Z,9.69
2019-03-11T04:14:38.892Z,9.77
2019-03-11T04:15:42.715Z,9.75
2019-03-11T04:16:46.776Z,9.73
2019-03-11T04:17:50.770Z,9.71
2019-03-11T04:18:56.157Z,9.68
2019-03-11T04:20:00.527Z,9.68
2019-03-11T04:21:04.971Z,9.64
2019-03-11T04:22:09.201Z,9.64
2019-03-11T04:23:13.439Z,9.66
2019-03-11T04:24:17.648Z,9.63
2019-03-11T04:25:21.547Z,9.65
2019-03-11T04:26:30.168Z,9.65
2019-03-11T04:27:34.116Z,9.69
2019-03-11T04:28:57.760Z,9.64
2019-03-11T04:31:45.695Z,9.64
2019-03-11T04:33:08.716Z,9.66
2019-03-11T04:34:32.006Z,9.65
2019-03-11T04:35:55.178Z,9.67
2019-03-11T04:37:18.490Z,9.61
2019-03-11T04:38:41.375Z,9.64
2019-03-11T04:41:08.400Z,9.55
2019-03-11T04:42:31.895Z,9.55
2019-03-11T04:43:35.883Z,9.57
2019-03-11T04:44:39.705Z,9.57
2019-03-11T04:45:44.182Z,9.55
2019-03-11T04:46:48.157Z,9.55
2019-03-11T04:47:52.315Z,9.57
2019-03-11T04:48:56.140Z,9.58
2019-03-11T04:50:00.683Z,9.54
2019-03-11T04:51:04.538Z,9.55
2019-03-11T04:52:08.933Z,9.58
2019-03-11T04:53:12.767Z,9.56
2019-03-11T04:54:35.781Z,9.58
2019-03-11T04:55:39.998Z,9.60
2019-03-11T04:56:44.231Z,9.60
2019-03-11T04:58:07.339Z,9.61
2019-03-11T05:01:15.246Z,9.63
2019-03-11T05:02:19.211Z,9.64
2019-03-11T05:03:42.858Z,9.60
2019-03-11T05:04:47.231Z,9.61
2019-03-11T05:07:33.621Z,9.66
2019-03-11T05:08:37.534Z,9.66
2019-03-11T05:09:41.979Z,9.62
2019-03-11T05:10:45.954Z,9.63
2019-03-11T05:11:49.779Z,9.63
2019-03-11T05:12:53.743Z,9.60
2019-03-11T05:13:57.847Z,9.61
2019-03-11T05:16:43.887Z,9.50
2019-03-11T05:17:48.936Z,9.49
2019-03-11T05:18:54.075Z,9.51
2019-03-11T05:19:57.969Z,9.60
2019-03-11T05:21:02.125Z,9.55
2019-03-11T05:22:06.519Z,9.51
2019-03-11T05:23:10.591Z,9.57
2019-03-11T05:24:14.419Z,9.48
2019-03-11T05:25:18.383Z,9.51
2019-03-11T05:26:22.279Z,9.49
2019-03-11T05:27:26.762Z,9.49
2019-03-11T05:28:30.835Z,9.49
2019-03-11T05:29:34.898Z,9.51
2019-03-11T05:30:39.120Z,9.53
2019-03-11T05:31:42.938Z,9.54
2019-03-11T05:32:47.117Z,9.57
2019-03-11T05:33:51.012Z,9.63
2019-03-11T05:34:54.906Z,9.59
2019-03-11T05:35:58.737Z,9.61
2019-03-11T05:37:03.062Z,9.61
2019-03-11T05:38:07.187Z,9.57
2019-03-11T05:39:11.015Z,9.61
2019-03-11T05:40:14.983Z,9.56
2019-03-11T05:41:19.117Z,9.57
2019-03-11T05:42:23.260Z,9.55
2019-03-11T05:43:27.160Z,9.59
2019-03-11T05:44:31.057Z,9.52
2019-03-11T05:45:35.688Z,9.54
2019-03-11T05:46:39.763Z,9.45
2019-03-11T05:47:44.226Z,9.40
2019-03-11T05:48:48.074Z,9.37
2019-03-11T05:49:52.208Z,9.35
2019-03-11T05:50:56.348Z,9.33
2019-03-11T05:52:00.235Z,9.32
2019-03-11T05:53:04.370Z,9.34
2019-03-11T05:54:08.281Z,9.33
2019-03-11T05:55:12.457Z,9.34
2019-03-11T05:56:16.524Z,9.33
2019-03-11T05:57:20.597Z,9.30
2019-03-11T05:58:24.667Z,9.29
2019-03-11T05:59:28.822Z,9.19
2019-03-11T06:00:33.260Z,9.27
2019-03-11T06:01:37.078Z,9.29
2019-03-11T06:02:41.457Z,9.27
2019-03-11T06:03:45.600Z,9.26
2019-03-11T06:04:49.651Z,9.31
2019-03-11T06:05:53.867Z,9.26
2019-03-11T06:06:57.680Z,9.24
2019-03-11T06:08:02.091Z,9.28
2019-03-11T06:09:07.753Z,9.23
2019-03-11T06:10:11.861Z,9.33
2019-03-11T06:11:15.923Z,9.24
2019-03-11T06:12:20.629Z,9.18
2019-03-11T06:13:43.795Z,9.16
2019-03-11T06:14:47.712Z,9.17
2019-03-11T06:16:11.041Z,9.16
2019-03-11T06:17:34.274Z,9.21
2019-03-11T06:18:57.481Z,9.18
2019-03-11T06:20:39.799Z,9.18
2019-03-11T06:21:46.908Z,9.13
2019-03-11T06:22:51.191Z,9.10
2019-03-11T06:24:14.353Z,9.13
2019-03-11T06:25:18.630Z,9.11
2019-03-11T06:28:04.976Z,9.00
2019-03-11T06:29:30.798Z,9.02
2019-03-11T06:30:34.682Z,8.95
2019-03-11T06:31:39.091Z,8.96
2019-03-11T06:32:42.925Z,8.96
2019-03-11T06:33:47.127Z,8.97
2019-03-11T06:35:10.332Z,8.99
2019-03-11T06:36:14.549Z,8.99
2019-03-11T06:37:18.684Z,8.98
2019-03-11T06:38:41.890Z,8.95
2019-03-11T06:39:46.004Z,8.91
2019-03-11T06:40:49.828Z,8.91
2019-03-11T06:43:16.935Z,8.94
2019-03-11T06:44:39.960Z,8.97
2019-03-11T06:45:43.879Z,9.00
2019-03-11T06:47:07.275Z,8.92
2019-03-11T06:48:11.514Z,8.91
2019-03-11T06:49:15.635Z,8.90
2019-03-11T06:50:19.876Z,8.96
2019-03-11T06:51:43.030Z,8.96
2019-03-11T06:53:06.252Z,8.92
2019-03-11T06:54:10.375Z,8.91
2019-03-11T06:55:53.849Z,8.88
2019-03-11T06:57:16.734Z,8.90
2019-03-11T06:58:20.853Z,8.91
2019-03-11T06:59:24.664Z,8.92
2019-03-11T07:00:47.898Z,8.88
2019-03-11T07:01:51.802Z,8.88
2019-03-11T07:03:15.157Z,8.86
2019-03-11T07:04:38.177Z,8.86
2019-03-11T07:06:01.321Z,8.86
2019-03-11T07:07:24.821Z,8.82
2019-03-11T07:08:28.924Z,8.86
2019-03-11T07:11:15.423Z,8.78
2019-03-11T07:12:38.614Z,8.77
2019-03-11T07:13:42.827Z,8.80
2019-03-11T07:14:46.671Z,8.86
2019-03-11T07:16:10.334Z,8.88
2019-03-11T07:17:14.166Z,8.92
2019-03-11T07:18:18.314Z,8.98
2019-03-11T07:19:41.593Z,9.04
2019-03-11T07:20:45.709Z,9.10
2019-03-11T07:22:08.741Z,9.19
2019-03-11T07:23:13.302Z,9.29
2019-03-11T07:24:36.490Z,9.21
2019-03-11T07:25:59.859Z,9.21
2019-03-11T07:27:04.187Z,9.21
2019-03-11T07:28:08.473Z,9.25
2019-03-11T07:29:31.700Z,9.26
2019-03-11T07:30:55.206Z,9.33
2019-03-11T07:33:09.880Z,9.31
2019-03-11T07:34:14.008Z,9.32
2019-03-11T07:35:18.274Z,9.25
2019-03-11T07:36:22.462Z,9.20
2019-03-11T07:37:45.379Z,9.18
2019-03-11T07:38:49.487Z,9.19
2019-03-11T07:40:12.661Z,9.21
2019-03-11T07:41:16.634Z,9.23
2019-03-11T07:42:20.743Z,9.22
2019-03-11T07:43:24.638Z,9.21
2019-03-11T07:44:28.867Z,9.30
2019-03-11T07:45:33.080Z,9.18
2019-03-11T07:46:56.316Z,9.15
2019-03-11T07:48:19.325Z,9.15
2019-03-11T07:49:42.327Z,9.24
2019-03-11T07:51:05.343Z,9.29
2019-03-11T07:52:28.457Z,9.37
2019-03-11T07:53:32.619Z,9.43
2019-03-11T07:54:36.708Z,9.37
2019-03-11T07:55:40.850Z,9.36
2019-03-11T07:56:44.668Z,9.39
2019-03-11T07:57:48.497Z,9.39
2019-03-11T07:58:52.322Z,9.42
2019-03-11T07:59:56.487Z,9.45
2019-03-11T08:01:00.659Z,9.51
2019-03-11T08:02:04.626Z,9.57
2019-03-11T08:03:08.883Z,9.61
2019-03-11T08:04:12.952Z,9.65
2019-03-11T08:05:16.920Z,9.64
2019-03-11T08:06:20.983Z,9.65
2019-03-11T08:07:27.335Z,9.68
2019-03-11T08:08:30.738Z,9.76
2019-03-11T08:09:38.053Z,9.71
2019-03-11T08:10:40.237Z,9.67
2019-03-11T08:11:44.301Z,9.63
2019-03-11T08:12:48.286Z,9.61
2019-03-11T08:13:52.105Z,9.62
2019-03-11T08:14:56.432Z,9.71
2019-03-11T08:16:00.567Z,9.72
2019-03-11T08:17:04.456Z,9.68
2019-03-11T08:18:10.698Z,9.66
2019-03-11T08:19:14.483Z,9.64
2019-03-11T08:22:01.047Z,9.71
2019-03-11T08:23:24.093Z,9.79
2019-03-11T08:24:47.562Z,9.83
2019-03-11T08:26:10.685Z,9.93
2019-03-11T08:27:15.250Z,9.90
2019-03-11T08:28:38.499Z,10.03
2019-03-11T08:29:42.641Z,9.98
2019-03-11T08:31:05.855Z,9.91
2019-03-11T08:32:09.749Z,9.89
2019-03-11T08:33:13.910Z,9.92
2019-03-11T08:34:17.804Z,9.86
2019-03-11T08:35:40.817Z,9.89
2019-03-11T08:36:45.227Z,9.85
2019-03-11T08:38:08.277Z,9.88
2019-03-11T08:39:31.285Z,9.92
2019-03-11T08:40:35.116Z,9.91
2019-03-11T08:41:58.471Z,9.98
2019-03-11T08:44:25.821Z,9.95
2019-03-11T08:45:30.065Z,10.02
2019-03-11T08:46:53.269Z,9.92
2019-03-11T08:48:16.640Z,9.89
2019-03-11T08:49:20.476Z,10.00
2019-03-11T08:52:06.578Z,9.92
2019-03-11T08:54:33.366Z,10.02
2019-03-11T08:57:00.559Z,10.08
2019-03-11T08:58:23.576Z,10.13
2019-03-11T08:59:47.026Z,10.20
2019-03-11T09:00:51.192Z,10.25
2019-03-11T09:01:55.096Z,10.30
2019-03-11T09:02:58.930Z,10.36
2019-03-11T09:04:22.548Z,10.39
2019-03-11T09:07:10.288Z,10.25
2019-03-11T09:08:14.105Z,10.28
2019-03-11T09:09:17.946Z,10.30
2019-03-11T09:10:41.288Z,10.31
2019-03-11T09:12:04.419Z,10.30
2019-03-11T09:13:08.247Z,10.34
2019-03-11T09:14:12.422Z,10.43
2019-03-11T09:15:16.400Z,10.44
2019-03-11T09:16:20.220Z,10.42
2019-03-11T09:17:24.292Z,10.41
2019-03-11T09:18:28.306Z,10.42
2019-03-11T09:19:32.138Z,10.44
2019-03-11T09:20:36.034Z,10.57
2019-03-11T09:21:40.166Z,10.52
2019-03-11T09:22:44.313Z,10.57
2019-03-11T09:23:48.722Z,10.52
2019-03-11T09:24:53.117Z,10.54
2019-03-11T09:25:57.255Z,10.51
2019-03-11T09:27:01.401Z,10.57
2019-03-11T09:28:05.376Z,10.52
2019-03-11T09:29:09.420Z,10.55
2019-03-11T09:30:16.199Z,10.57
2019-03-11T09:31:20.024Z,10.60
2019-03-11T09:32:23.991Z,10.64
2019-03-11T09:33:27.893Z,10.64
2019-03-11T09:34:31.717Z,10.74
2019-03-11T09:35:35.687Z,10.70
2019-03-11T09:36:40.080Z,10.79
2019-03-11T09:37:44.673Z,10.76
2019-03-11T09:38:48.555Z,10.76
2019-03-11T09:40:31.285Z,10.85
2019-03-11T09:41:35.105Z,10.85
2019-03-11T09:42:39.169Z,10.77
2019-03-11T09:43:43.319Z,10.78
2019-03-11T09:45:06.354Z,10.78
2019-03-11T09:47:52.697Z,10.87
2019-03-11T09:48:56.875Z,10.90
2019-03-11T09:50:00.794Z,10.93
2019-03-11T09:51:23.815Z,10.99
2019-03-11T09:52:27.791Z,11.04
2019-03-11T09:53:50.757Z,10.95
2019-03-11T09:54:54.601Z,10.92
2019-03-11T09:55:58.525Z,10.87
2019-03-11T09:58:44.559Z,10.88
2019-03-11T09:59:48.399Z,10.71
2019-03-11T10:02:34.375Z,10.64
2019-03-11T10:03:38.285Z,10.64
2019-03-11T10:04:42.212Z,10.61
2019-03-11T10:06:05.108Z,10.62
2019-03-11T10:08:51.558Z,10.69
2019-03-11T10:09:55.408Z,10.75
2019-03-11T10:11:18.427Z,10.77
2019-03-11T10:12:41.963Z,10.86
2019-03-11T10:13:45.842Z,10.91
2019-03-11T10:14:50.133Z,10.87
2019-03-11T10:16:13.045Z,10.87
2019-03-11T10:17:17.279Z,10.85
2019-03-11T10:18:40.843Z,10.86
2019-03-11T10:20:03.925Z,10.87
2019-03-11T10:21:07.837Z,10.94
2019-03-11T10:22:11.963Z,10.97
2019-03-11T10:23:35.263Z,10.86
2019-03-11T10:24:39.720Z,10.83
2019-03-11T10:26:03.010Z,10.80
2019-03-11T10:27:25.973Z,10.81
2019-03-11T10:28:30.472Z,10.78
2019-03-11T10:29:53.623Z,10.79
2019-03-11T10:31:16.978Z,10.69
2019-03-11T10:32:21.724Z,10.45
2019-03-11T10:33:25.629Z,10.26
2019-03-11T10:34:48.976Z,10.10
2019-03-11T10:35:53.258Z,10.00
2019-03-11T10:37:16.587Z,10.00
2019-03-11T10:38:39.606Z,9.96
2019-03-11T10:39:43.440Z,10.00
2019-03-11T10:40:48.167Z,10.08
2019-03-11T10:42:11.399Z,10.13
2019-03-11T10:43:34.695Z,10.17
2019-03-11T10:44:57.806Z,10.29
2019-03-11T10:46:21.073Z,10.36
2019-03-11T10:47:24.977Z,10.42
2019-03-11T10:48:48.000Z,10.54
2019-03-11T10:51:34.357Z,10.67
2019-03-11T10:52:38.579Z,10.70
2019-03-11T10:56:50.225Z,10.70
2019-03-11T10:58:13.190Z,10.75
2019-03-11T10:59:36.537Z,10.88
2019-03-11T11:00:40.839Z,10.81
2019-03-11T11:02:04.133Z,10.81
2019-03-11T11:03:08.350Z,10.82
2019-03-11T11:04:12.258Z,10.82
2019-03-11T11:05:35.283Z,10.84
2019-03-11T11:06:39.959Z,10.93
2019-03-11T11:07:43.865Z,11.03
2019-03-11T11:08:47.769Z,10.91
2019-03-11T11:09:51.676Z,10.85
2019-03-11T11:10:55.745Z,10.84
2019-03-11T11:12:19.069Z,10.82
2019-03-11T11:13:22.971Z,10.82
2019-03-11T11:14:26.863Z,10.84
2019-03-11T11:15:30.990Z,10.90
2019-03-11T11:16:35.629Z,10.88
2019-03-11T11:18:49.354Z,10.93
2019-03-11T11:21:35.849Z,10.94
2019-03-11T11:22:39.834Z,10.84
2019-03-11T11:24:02.936Z,10.84
2019-03-11T11:25:08.148Z,10.81
2019-03-11T11:26:12.313Z,10.82
2019-03-11T11:27:16.211Z,10.90
2019-03-11T11:28:20.509Z,10.96
2019-03-11T11:29:24.331Z,10.96
2019-03-11T11:30:28.668Z,10.98
2019-03-11T11:31:32.483Z,11.12
2019-03-11T11:32:37.057Z,11.11
2019-03-11T11:33:41.183Z,11.07
2019-03-11T11:34:45.088Z,11.15
2019-03-11T11:35:48.920Z,11.20
2019-03-11T11:37:12.125Z,11.23
2019-03-11T11:38:16.036Z,11.30
2019-03-11T11:39:20.330Z,11.41
2019-03-11T11:40:24.509Z,11.46
2019-03-11T11:41:28.432Z,11.51
2019-03-11T11:42:32.763Z,11.53
2019-03-11T11:43:36.752Z,11.56
2019-03-11T11:44:40.826Z,11.47
2019-03-11T11:45:44.726Z,11.41
2019-03-11T11:46:48.957Z,11.41
2019-03-11T11:47:53.261Z,11.35
2019-03-11T11:51:56.670Z,10.51
2019-03-11T11:53:19.940Z,9.87
2019-03-11T11:54:23.904Z,9.52
2019-03-11T11:55:27.879Z,9.24
2019-03-11T11:56:50.806Z,9.12
2019-03-11T11:57:55.079Z,9.00
2019-03-11T11:58:58.987Z,9.03
2019-03-11T12:00:02.974Z,9.14
2019-03-11T12:01:06.944Z,9.16
2019-03-11T12:02:10.913Z,9.23
2019-03-11T12:03:14.814Z,9.30
2019-03-11T12:04:18.943Z,9.38
2019-03-11T12:05:22.907Z,9.47
2019-03-11T12:06:26.794Z,9.53
2019-03-11T12:07:31.039Z,9.58
2019-03-11T12:08:35.018Z,9.64
2019-03-11T12:09:39.076Z,9.70
2019-03-11T12:10:43.221Z,9.68
2019-03-11T12:11:47.352Z,9.68
2019-03-11T12:12:51.319Z,9.72
2019-03-11T12:13:55.395Z,9.78
2019-03-11T12:14:59.365Z,9.83
2019-03-11T12:16:03.327Z,9.92
2019-03-11T12:17:07.290Z,9.94
2019-03-11T12:18:11.758Z,9.93
2019-03-11T12:19:15.590Z,9.96
2019-03-11T12:20:21.118Z,9.95
2019-03-11T12:21:25.325Z,9.86
2019-03-11T12:22:29.541Z,9.82
2019-03-11T12:23:33.760Z,9.77
2019-03-11T12:24:37.724Z,9.74
2019-03-11T12:26:00.812Z,9.75
2019-03-11T12:28:27.746Z,9.94
2019-03-11T12:29:31.653Z,9.89
2019-03-11T12:30:35.895Z,9.84
2019-03-11T12:31:40.342Z,9.87
2019-03-11T12:32:44.721Z,9.80
2019-03-11T12:33:48.700Z,9.72
2019-03-11T12:34:53.210Z,9.73
2019-03-11T12:35:57.423Z,9.74
2019-03-11T12:37:02.253Z,9.82
2019-03-11T12:38:06.729Z,9.91
2019-03-11T12:39:30.269Z,10.05
2019-03-11T12:40:34.686Z,10.23
2019-03-11T12:41:58.043Z,10.45
2019-03-11T12:43:21.132Z,10.59
2019-03-11T12:44:25.571Z,10.79
2019-03-11T12:45:29.822Z,11.00
2019-03-11T12:46:53.086Z,11.14
2019-03-11T12:47:56.985Z,11.22
2019-03-11T12:49:01.381Z,11.24
2019-03-11T12:50:45.298Z,11.26
2019-03-11T12:51:50.349Z,11.23
2019-03-11T12:52:55.181Z,11.20
2019-03-11T12:53:59.011Z,11.12
2019-03-11T12:55:03.167Z,11.04
2019-03-11T12:56:26.181Z,10.99
2019-03-11T12:57:30.422Z,10.90
2019-03-11T12:58:41.547Z,10.71
2019-03-11T12:59:40.982Z,10.61
2019-03-11T13:01:05.424Z,10.47
2019-03-11T13:02:28.967Z,10.40
2019-03-11T13:03:33.433Z,10.34
2019-03-11T13:04:56.804Z,10.36
2019-03-11T13:06:00.882Z,10.28
2019-03-11T13:07:23.848Z,10.30
2019-03-11T13:08:27.936Z,10.38
2019-03-11T13:09:32.419Z,10.42
2019-03-11T13:10:55.319Z,10.51
2019-03-11T13:12:18.327Z,10.66
2019-03-11T13:13:22.542Z,10.85
2019-03-11T13:14:45.897Z,11.00
2019-03-11T13:16:09.096Z,11.18
2019-03-11T13:17:12.990Z,11.13
2019-03-11T13:18:55.127Z,11.03
2019-03-11T13:19:59.810Z,10.97
2019-03-11T13:21:08.353Z,11.02
2019-03-11T13:22:12.321Z,11.00
2019-03-11T13:23:16.388Z,11.01
2019-03-11T13:24:20.362Z,11.19
2019-03-11T13:25:24.355Z,11.09
2019-03-11T13:26:28.575Z,11.16
2019-03-11T13:27:32.718Z,11.17
2019-03-11T13:28:36.866Z,11.22
2019-03-11T13:29:40.938Z,11.25
2019-03-11T13:30:44.846Z,11.33
2019-03-11T13:31:48.811Z,11.41
2019-03-11T13:32:52.701Z,11.47
2019-03-11T13:33:56.522Z,11.61
2019-03-11T13:35:00.671Z,11.45
2019-03-11T13:36:06.898Z,11.43
2019-03-11T13:37:11.116Z,11.48
2019-03-11T13:38:15.013Z,11.51
2019-03-11T13:39:19.085Z,11.61
2019-03-11T13:40:23.552Z,11.60
2019-03-11T13:41:27.710Z,11.60
2019-03-11T13:42:31.933Z,11.63
2019-03-11T13:43:36.430Z,11.69
2019-03-11T13:44:40.587Z,11.70
2019-03-11T13:45:44.790Z,11.72
2019-03-11T13:46:48.958Z,11.74
2019-03-11T13:47:53.179Z,11.76
2019-03-11T13:48:57.399Z,11.71
2019-03-11T13:50:01.905Z,11.68
2019-03-11T13:51:06.307Z,11.67
2019-03-11T13:52:10.347Z,11.70
2019-03-11T13:53:15.240Z,11.68
2019-03-11T13:54:19.884Z,11.69
2019-03-11T13:55:23.776Z,11.69
2019-03-11T13:57:09.992Z,11.67
2019-03-11T13:59:37.160Z,11.67
2019-03-11T14:00:41.147Z,11.71
2019-03-11T14:01:45.328Z,11.73
2019-03-11T14:02:49.334Z,11.75
2019-03-11T14:03:53.479Z,11.81
2019-03-11T14:04:57.673Z,11.81
2019-03-11T14:06:01.493Z,11.83
2019-03-11T14:07:24.385Z,11.82
2019-03-11T14:08:28.480Z,11.80
2019-03-11T14:09:33.197Z,11.80
2019-03-11T14:10:37.033Z,11.82
2019-03-11T14:11:41.178Z,11.80
2019-03-11T14:12:45.082Z,11.70
2019-03-11T14:15:12.162Z,11.52
2019-03-11T14:17:40.009Z,11.50
2019-03-11T14:18:44.468Z,11.47
2019-03-11T14:19:49.038Z,11.41
2019-03-11T14:21:12.226Z,11.43
2019-03-11T14:22:16.397Z,11.34
2019-03-11T14:24:43.583Z,11.19
2019-03-11T14:25:47.562Z,11.18
2019-03-11T14:26:51.750Z,11.17
2019-03-11T14:27:55.996Z,11.15
2019-03-11T14:28:59.896Z,11.24
2019-03-11T14:30:22.836Z,11.18
2019-03-11T14:31:26.968Z,11.05
2019-03-11T14:32:31.438Z,10.89
2019-03-11T14:33:35.596Z,10.83
2019-03-11T14:36:21.922Z,10.77
2019-03-11T14:37:26.232Z,10.68
2019-03-11T14:38:30.438Z,10.63
2019-03-11T14:39:34.596Z,10.60
2019-03-11T14:40:38.710Z,10.59
2019-03-11T14:41:42.798Z,10.60
2019-03-11T14:42:47.061Z,10.62
2019-03-11T14:43:51.465Z,10.71
2019-03-11T14:44:55.668Z,10.69
2019-03-11T14:47:41.631Z,10.77
2019-03-11T14:48:46.080Z,10.83
2019-03-11T14:50:09.147Z,10.88
2019-03-11T14:51:32.274Z,10.90
2019-03-11T14:52:55.533Z,10.97
2019-03-11T14:53:59.365Z,11.05
2019-03-11T14:55:22.339Z,11.04
2019-03-11T14:56:45.450Z,11.06
2019-03-11T14:57:49.432Z,11.06
2019-03-11T14:58:53.955Z,11.04
2019-03-11T14:59:57.916Z,11.03
2019-03-11T15:01:02.205Z,11.03
2019-03-11T15:02:06.628Z,11.04
2019-03-11T15:03:11.123Z,11.06
2019-03-11T15:04:15.468Z,11.08
2019-03-11T15:05:19.547Z,11.10
2019-03-11T15:06:23.386Z,11.16
2019-03-11T15:09:09.713Z,11.22
2019-03-11T15:13:20.398Z,11.29
2019-03-11T15:14:43.751Z,11.31
2019-03-11T15:15:47.598Z,11.41
2019-03-11T15:17:10.859Z,11.46
2019-03-11T15:18:34.310Z,11.48
2019-03-11T15:19:38.220Z,11.52
2019-03-11T15:20:42.721Z,11.54
2019-03-11T15:22:05.679Z,11.54
2019-03-11T15:23:29.038Z,11.55
2019-03-11T15:24:32.937Z,11.55
2019-03-11T15:25:37.492Z,11.53
2019-03-11T15:26:41.783Z,11.48
2019-03-11T15:27:45.756Z,11.43
2019-03-11T15:28:49.608Z,11.37
2019-03-11T15:31:16.743Z,11.39
2019-03-11T15:32:21.028Z,11.42
2019-03-11T15:33:25.202Z,11.44
2019-03-11T15:34:29.410Z,11.43
2019-03-11T15:35:41.200Z,11.53
2019-03-11T15:36:45.417Z,11.48
2019-03-11T15:37:49.668Z,11.44
2019-03-11T15:39:13.163Z,11.46
2019-03-11T15:40:17.477Z,11.52
2019-03-11T15:41:21.373Z,11.53
2019-03-11T15:42:25.455Z,11.52
2019-03-11T15:43:29.928Z,11.50
2019-03-11T15:44:33.834Z,11.52
2019-03-11T15:45:38.819Z,11.53
2019-03-11T15:46:43.526Z,11.50
2019-03-11T15:47:47.739Z,11.46
2019-03-11T15:48:51.927Z,11.42
2019-03-11T15:49:56.019Z,11.43
2019-03-11T15:50:59.915Z,11.36
2019-03-11T15:52:04.383Z,11.29
2019-03-11T15:53:08.712Z,11.27
2019-03-11T15:54:13.038Z,11.23
2019-03-11T15:55:17.284Z,11.22
2019-03-11T15:56:21.874Z,11.23
2019-03-11T15:57:25.772Z,11.23
2019-03-11T15:58:29.837Z,11.24
2019-03-11T15:59:34.113Z,11.28
2019-03-11T16:00:38.108Z,11.35
2019-03-11T16:01:42.006Z,11.42
2019-03-11T16:02:46.007Z,11.47
2019-03-11T16:03:49.825Z,11.55
2019-03-11T16:04:53.738Z,11.58
2019-03-11T16:05:58.517Z,11.59
2019-03-11T16:07:02.702Z,11.57
2019-03-11T16:08:06.600Z,11.58
2019-03-11T16:09:19.181Z,11.64
2019-03-11T16:11:46.933Z,11.54
2019-03-11T16:14:14.442Z,11.44
2019-03-11T16:15:18.871Z,11.37
2019-03-11T16:16:22.771Z,11.33
2019-03-11T16:17:26.955Z,11.31
2019-03-11T16:18:31.262Z,11.33
2019-03-11T16:19:35.233Z,11.34
2019-03-11T16:21:48.820Z,11.41
2019-03-11T16:22:53.267Z,11.48
2019-03-11T16:23:57.406Z,11.53
2019-03-11T16:25:01.386Z,11.59
2019-03-11T16:26:05.362Z,11.66
2019-03-11T16:27:09.945Z,11.68
2019-03-11T16:28:14.211Z,11.75
2019-03-11T16:29:18.443Z,11.71
2019-03-11T16:30:22.684Z,11.70
2019-03-11T16:31:26.577Z,11.66
2019-03-11T16:32:30.398Z,11.61
2019-03-11T16:33:34.845Z,11.60
2019-03-11T16:34:38.949Z,11.53
2019-03-11T16:35:43.283Z,11.50
2019-03-11T16:37:06.538Z,11.54
2019-03-11T16:38:11.048Z,11.46
2019-03-11T16:39:15.849Z,11.42